createdAt,value
2022-08-14T00:02:14.928Z,18.50
2022-08-14T00:04:46.774Z,18.50
2022-08-14T00:07:15.671Z,18.50
2022-08-14T00:10:01.374Z,18.50
2022-08-14T00:12:39.171Z,18.40
2022-08-14T00:15:10.274Z,18.40
2022-08-14T00:17:47.261Z,18.30
2022-08-14T00:20:24.150Z,18.30
2022-08-14T00:22:58.595Z,18.10
2022-08-14T00:25:30.637Z,18.20
2022-08-14T00:28:15.048Z,18.30
2022-08-14T00:30:49.115Z,18.20
2022-08-14T00:33:17.295Z,18.10
2022-08-14T00:36:37.054Z,18.10
2022-08-14T00:38:35.261Z,18.10
2022-08-14T00:41:04.937Z,18.10
2022-08-14T00:43:33.317Z,18.10
2022-08-14T00:46:05.225Z,18.10
2022-08-14T00:48:36.804Z,18.00
2022-08-14T00:51:09.216Z,17.90
2022-08-14T00:53:37.795Z,18.00
2022-08-14T00:56:08.432Z,18.00
2022-08-14T00:58:39.886Z,17.90
2022-08-14T01:01:14.648Z,18.00
2022-08-14T01:03:45.506Z,18.00
2022-08-14T01:06:22.493Z,18.00
2022-08-14T01:08:59.331Z,18.00
2022-08-14T01:11:35.267Z,17.90
2022-08-14T01:14:18.214Z,18.00
2022-08-14T01:16:53.133Z,17.80
2022-08-14T01:19:41.650Z,17.80
2022-08-14T01:22:13.289Z,17.80
2022-08-14T01:24:47.489Z,17.80
2022-08-14T01:27:18.196Z,17.60
2022-08-14T01:30:01.432Z,17.70
2022-08-14T01:32:37.459Z,17.70
2022-08-14T01:35:20.712Z,17.80
2022-08-14T01:38:02.661Z,17.70
2022-08-14T01:40:41.251Z,17.70
2022-08-14T01:43:14.851Z,17.70
2022-08-14T01:45:48.776Z,17.70
2022-08-14T01:48:20.737Z,17.80
2022-08-14T01:50:49.878Z,17.80
2022-08-14T01:53:20.323Z,17.70
2022-08-14T01:55:51.825Z,17.70
2022-08-14T01:58:28.740Z,17.70
2022-08-14T02:00:58.627Z,17.70
2022-08-14T02:03:29.837Z,17.70
2022-08-14T02:06:03.534Z,17.70
2022-08-14T02:08:53.107Z,17.60
2022-08-14T02:11:25.659Z,17.50
2022-08-14T02:13:56.734Z,17.50
2022-08-14T02:16:26.680Z,17.50
2022-08-14T02:18:55.811Z,17.60
2022-08-14T02:21:23.862Z,17.60
2022-08-14T02:23:54.441Z,17.50
2022-08-14T02:26:29.288Z,17.50
2022-08-14T02:29:00.584Z,17.50
2022-08-14T02:31:42.311Z,17.50
2022-08-14T02:34:22.324Z,17.40
2022-08-14T02:37:04.285Z,17.40
2022-08-14T02:39:37.013Z,17.40
2022-08-14T02:42:05.680Z,17.20
2022-08-14T02:44:39.721Z,17.10
2022-08-14T02:47:15.015Z,17.20
2022-08-14T02:49:50.771Z,17.20
2022-08-14T02:52:56.799Z,17.20
2022-08-14T02:55:19.978Z,17.20
2022-08-14T02:57:58.047Z,17.20
2022-08-14T03:00:33.154Z,17.30
2022-08-14T03:03:07.714Z,17.40
2022-08-14T03:05:37.246Z,17.30
2022-08-14T03:08:11.118Z,17.30
2022-08-14T03:10:42.068Z,17.40
2022-08-14T03:13:19.750Z,17.40
2022-08-14T03:15:51.015Z,17.40
2022-08-14T03:18:31.979Z,17.40
2022-08-14T03:21:04.386Z,17.40
2022-08-14T03:23:37.769Z,17.40
2022-08-14T03:26:08.923Z,17.40
2022-08-14T03:28:43.447Z,17.30
2022-08-14T03:31:13.249Z,17.40
2022-08-14T03:33:42.059Z,17.40
2022-08-14T03:37:38.764Z,17.40
2022-08-14T03:39:13.130Z,17.30
2022-08-14T03:41:53.724Z,17.30
2022-08-14T03:45:20.111Z,17.40
2022-08-14T03:47:11.692Z,17.40
2022-08-14T03:49:42.189Z,17.40
2022-08-14T03:52:17.954Z,17.40
2022-08-14T03:55:00.351Z,17.40
2022-08-14T03:57:37.268Z,17.40
2022-08-14T04:00:14.013Z,17.40
2022-08-14T04:02:57.478Z,17.40
2022-08-14T04:05:26.546Z,17.60
2022-08-14T04:08:08.412Z,17.60
2022-08-14T04:10:42.763Z,17.60
2022-08-14T04:13:18.462Z,17.60
2022-08-14T04:15:56.417Z,17.70
2022-08-14T04:18:30.501Z,17.70
2022-08-14T04:21:01.243Z,17.80
2022-08-14T04:23:33.449Z,17.80
2022-08-14T04:26:02.656Z,17.80
2022-08-14T04:29:08.343Z,17.90
2022-08-14T04:31:25.096Z,17.90
2022-08-14T04:34:11.141Z,18.00
2022-08-14T04:36:59.364Z,18.00
2022-08-14T04:39:46.386Z,18.20
2022-08-14T04:42:32.158Z,18.40
2022-08-14T04:45:01.918Z,18.60
2022-08-14T04:47:47.597Z,18.80
2022-08-14T04:50:33.913Z,19.10
2022-08-14T04:53:13.134Z,19.20
2022-08-14T04:55:43.053Z,19.30
2022-08-14T04:58:21.480Z,19.50
2022-08-14T05:01:00.737Z,19.70
2022-08-14T05:03:30.178Z,19.90
2022-08-14T05:06:00.133Z,19.90
2022-08-14T05:08:32.292Z,19.90
2022-08-14T05:11:19.390Z,20.10
2022-08-14T05:16:39.800Z,20.10
2022-08-14T05:19:18.019Z,20.30
2022-08-14T05:22:01.173Z,20.30
2022-08-14T05:24:44.372Z,20.30
2022-08-14T05:27:12.427Z,20.60
2022-08-14T05:29:46.117Z,20.80
2022-08-14T05:32:16.907Z,21.00
2022-08-14T05:34:46.170Z,21.00
2022-08-14T05:37:15.334Z,21.10
2022-08-14T05:39:43.942Z,20.90
2022-08-14T05:42:21.571Z,21.10
2022-08-14T05:44:49.924Z,21.10
2022-08-14T05:47:23.969Z,21.30
2022-08-14T05:50:18.944Z,21.50
2022-08-14T05:52:51.883Z,21.60
2022-08-14T05:55:22.835Z,21.60
2022-08-14T05:57:52.707Z,21.80
2022-08-14T06:00:28.238Z,21.90
2022-08-14T06:02:59.989Z,22.30
2022-08-14T06:05:29.480Z,22.20
2022-08-14T06:07:58.224Z,22.40
2022-08-14T06:10:28.127Z,22.30
2022-08-14T06:13:00.243Z,22.40
2022-08-14T06:15:30.258Z,22.20
2022-08-14T06:18:03.100Z,22.30
2022-08-14T06:20:31.459Z,22.70
2022-08-14T06:23:02.478Z,22.70
2022-08-14T06:25:30.830Z,22.90
2022-08-14T06:28:00.917Z,23.10
2022-08-14T06:30:46.432Z,23.10
2022-08-14T06:33:18.071Z,23.10
2022-08-14T06:35:46.871Z,23.20
2022-08-14T06:38:18.437Z,23.40
2022-08-14T06:40:46.855Z,23.50
2022-08-14T06:43:15.774Z,23.50
2022-08-14T06:45:53.736Z,23.40
2022-08-14T06:48:25.123Z,23.50
2022-08-14T06:50:54.088Z,23.50
2022-08-14T06:53:22.489Z,23.90
2022-08-14T06:56:00.551Z,24.10
2022-08-14T06:58:32.273Z,24.00
2022-08-14T07:01:33.327Z,23.80
2022-08-14T07:04:24.922Z,23.90
2022-08-14T07:06:55.709Z,24.00
2022-08-14T07:09:28.309Z,24.00
2022-08-14T07:12:54.204Z,24.00
2022-08-14T07:15:02.120Z,23.90
2022-08-14T07:17:32.034Z,23.70
2022-08-14T07:20:04.165Z,23.90
2022-08-14T07:22:33.119Z,24.10
2022-08-14T07:25:20.610Z,24.20
2022-08-14T07:27:51.779Z,24.30
2022-08-14T07:30:33.390Z,24.40
2022-08-14T07:33:03.727Z,24.40
2022-08-14T07:35:42.861Z,24.40
2022-08-14T07:38:22.995Z,24.50
2022-08-14T07:40:52.967Z,24.70
2022-08-14T07:43:21.488Z,24.70
2022-08-14T07:45:50.668Z,24.70
2022-08-14T07:48:19.520Z,24.50
2022-08-14T07:50:59.477Z,24.50
2022-08-14T07:53:36.512Z,24.50
2022-08-14T07:56:08.978Z,24.80
2022-08-14T07:58:51.233Z,24.70
2022-08-14T08:01:29.825Z,24.80
2022-08-14T08:04:00.360Z,25.10
2022-08-14T08:06:33.018Z,24.80
2022-08-14T08:09:03.842Z,25.00
2022-08-14T08:11:34.726Z,24.90
2022-08-14T08:14:10.452Z,24.40
2022-08-14T08:16:41.626Z,24.50
2022-08-14T08:19:12.770Z,24.80
2022-08-14T08:21:45.117Z,24.70
2022-08-14T08:24:19.949Z,24.90
2022-08-14T08:26:50.745Z,25.30
2022-08-14T08:29:28.248Z,24.90
2022-08-14T08:32:01.965Z,24.30
2022-08-14T08:34:36.173Z,24.00
2022-08-14T08:37:07.253Z,24.30
2022-08-14T08:40:02.789Z,24.10
2022-08-14T08:42:38.313Z,24.00
2022-08-14T08:45:08.069Z,24.40
2022-08-14T08:47:40.699Z,24.70
2022-08-14T08:50:22.967Z,24.80
2022-08-14T08:53:05.375Z,24.70
2022-08-14T08:55:40.663Z,24.30
2022-08-14T08:58:12.534Z,24.20
2022-08-14T09:00:48.806Z,24.30
2022-08-14T09:03:20.787Z,24.20
2022-08-14T09:05:54.086Z,24.00
2022-08-14T09:08:31.308Z,24.00
2022-08-14T09:11:02.125Z,23.80
2022-08-14T09:13:33.772Z,24.00
2022-08-14T09:16:18.765Z,23.70
2022-08-14T09:18:53.262Z,23.40
2022-08-14T09:21:31.298Z,23.60
2022-08-14T09:24:26.856Z,23.50
2022-08-14T09:26:50.118Z,23.20
2022-08-14T09:29:22.747Z,23.00
2022-08-14T09:31:54.592Z,23.00
2022-08-14T09:34:31.412Z,23.30
2022-08-14T09:37:17.289Z,23.50
2022-08-14T09:39:57.938Z,23.80
2022-08-14T09:42:50.985Z,23.50
2022-08-14T09:45:20.170Z,22.90
2022-08-14T09:47:52.199Z,23.30
2022-08-14T09:50:28.531Z,22.90
2022-08-14T09:52:58.073Z,22.90
2022-08-14T09:55:41.317Z,23.10
2022-08-14T09:58:20.012Z,23.30
2022-08-14T10:00:54.048Z,23.60
2022-08-14T10:03:33.195Z,23.60
2022-08-14T10:06:11.527Z,23.70
2022-08-14T10:08:44.429Z,23.50
2022-08-14T10:11:23.432Z,23.80
2022-08-14T10:13:55.719Z,23.60
2022-08-14T10:16:33.253Z,23.50
2022-08-14T10:19:11.212Z,23.40
2022-08-14T10:21:58.485Z,23.40
2022-08-14T10:24:31.293Z,23.60
2022-08-14T10:27:17.154Z,23.50
2022-08-14T10:29:49.654Z,23.40
2022-08-14T10:32:28.726Z,23.30
2022-08-14T10:35:06.079Z,23.60
2022-08-14T10:37:39.986Z,23.60
2022-08-14T10:40:36.742Z,23.40
2022-08-14T10:42:58.851Z,23.30
2022-08-14T10:45:35.421Z,23.80
2022-08-14T10:48:08.035Z,23.90
2022-08-14T10:50:38.869Z,23.80
2022-08-14T10:53:07.980Z,23.80
2022-08-14T10:55:45.567Z,23.60
2022-08-14T10:58:17.631Z,23.70
2022-08-14T11:00:56.830Z,23.40
2022-08-14T11:03:26.682Z,23.30
2022-08-14T11:06:14.605Z,23.20
2022-08-14T11:08:42.994Z,23.80
2022-08-14T11:11:13.747Z,23.70
2022-08-14T11:13:46.462Z,23.40
2022-08-14T11:16:16.310Z,23.30
2022-08-14T11:18:50.751Z,23.30
2022-08-14T11:21:24.270Z,23.30
2022-08-14T11:23:58.824Z,23.50
2022-08-14T11:26:30.163Z,23.50
2022-08-14T11:29:01.628Z,23.50
2022-08-14T11:31:35.582Z,23.90
2022-08-14T11:34:29.669Z,23.90
2022-08-14T11:37:04.314Z,23.80
2022-08-14T11:39:37.917Z,23.80
2022-08-14T11:42:57.577Z,23.70
2022-08-14T11:45:01.024Z,23.80
2022-08-14T11:47:35.282Z,23.40
2022-08-14T11:50:33.500Z,23.50
2022-08-14T11:53:06.856Z,23.90
2022-08-14T11:55:35.915Z,24.10
2022-08-14T11:58:09.023Z,24.30
2022-08-14T12:00:49.005Z,24.10
2022-08-14T12:03:26.931Z,24.50
2022-08-14T12:06:06.976Z,24.80
2022-08-14T12:09:00.316Z,25.10
2022-08-14T12:11:43.579Z,24.70
2022-08-14T12:14:13.418Z,24.60
2022-08-14T12:17:02.207Z,24.80
2022-08-14T12:19:33.559Z,24.90
2022-08-14T12:22:06.748Z,25.00
2022-08-14T12:24:36.838Z,24.70
2022-08-14T12:27:08.135Z,24.80
2022-08-14T12:29:43.132Z,24.80
2022-08-14T12:32:12.859Z,24.70
2022-08-14T12:34:45.078Z,25.00
2022-08-14T12:37:13.342Z,24.60
2022-08-14T12:39:41.583Z,24.60
2022-08-14T12:42:34.147Z,24.70
2022-08-14T12:45:03.871Z,24.60
2022-08-14T12:47:37.755Z,24.40
2022-08-14T12:50:15.206Z,24.30
2022-08-14T12:52:56.089Z,24.40
2022-08-14T12:56:18.089Z,24.60
2022-08-14T12:58:52.008Z,24.60
2022-08-14T13:01:20.527Z,24.40
2022-08-14T13:03:51.989Z,24.10
2022-08-14T13:06:20.628Z,24.20
2022-08-14T13:08:52.965Z,24.90
2022-08-14T13:11:23.988Z,25.10
2022-08-14T13:13:54.134Z,24.40
2022-08-14T13:16:38.132Z,24.40
2022-08-14T13:19:11.734Z,24.80
2022-08-14T13:21:58.636Z,24.70
2022-08-14T13:24:29.058Z,24.30
2022-08-14T13:27:04.504Z,23.70
2022-08-14T13:29:37.782Z,23.80
2022-08-14T13:32:09.519Z,23.60
2022-08-14T13:34:41.211Z,23.00
2022-08-14T13:37:10.080Z,22.90
2022-08-14T13:39:47.669Z,23.10
2022-08-14T13:42:31.511Z,22.70
2022-08-14T13:45:01.412Z,22.80
2022-08-14T13:47:31.357Z,22.90
2022-08-14T13:50:02.773Z,23.30
2022-08-14T13:52:59.081Z,23.00
2022-08-14T13:55:24.140Z,22.80
2022-08-14T13:58:03.617Z,22.90
2022-08-14T14:00:35.743Z,22.90
2022-08-14T14:03:21.828Z,22.80
2022-08-14T14:05:55.002Z,23.60
2022-08-14T14:08:43.646Z,23.40
2022-08-14T14:11:15.791Z,23.80
2022-08-14T14:13:45.703Z,24.40
2022-08-14T14:16:26.189Z,24.00
2022-08-14T14:19:06.916Z,24.10
2022-08-14T14:21:40.505Z,23.70
2022-08-14T14:24:14.865Z,23.10
2022-08-14T14:26:45.330Z,23.00
2022-08-14T14:29:15.025Z,22.80
2022-08-14T14:31:47.583Z,22.80
2022-08-14T14:34:29.358Z,22.90
2022-08-14T14:37:03.005Z,23.10
2022-08-14T14:39:37.562Z,22.80
2022-08-14T14:42:31.799Z,22.60
2022-08-14T14:45:09.682Z,23.10
2022-08-14T14:47:38.696Z,22.80
2022-08-14T14:50:11.468Z,23.60
2022-08-14T14:52:42.468Z,23.70
2022-08-14T14:55:12.754Z,23.30
2022-08-14T14:57:45.495Z,23.00
2022-08-14T15:00:20.978Z,22.60
2022-08-14T15:02:51.568Z,22.90
2022-08-14T15:05:21.108Z,23.00
2022-08-14T15:07:51.666Z,23.00
2022-08-14T15:10:27.596Z,23.40
2022-08-14T15:13:00.194Z,23.00
2022-08-14T15:15:28.765Z,23.20
2022-08-14T15:18:01.316Z,22.80
2022-08-14T15:20:31.233Z,22.90
2022-08-14T15:23:11.686Z,22.90
2022-08-14T15:25:41.574Z,23.00
2022-08-14T15:28:21.176Z,23.10
2022-08-14T15:30:58.886Z,23.00
2022-08-14T15:34:01.145Z,23.30
2022-08-14T15:36:38.334Z,23.00
2022-08-14T15:39:10.904Z,22.80
2022-08-14T15:41:41.873Z,22.60
2022-08-14T15:44:19.079Z,22.60
2022-08-14T15:46:54.008Z,22.50
2022-08-14T15:49:24.361Z,23.00
2022-08-14T15:51:59.345Z,22.50
2022-08-14T15:54:31.453Z,22.80
2022-08-14T15:57:02.895Z,22.70
2022-08-14T15:59:53.938Z,22.50
2022-08-14T16:02:24.580Z,22.80
2022-08-14T16:04:56.127Z,22.70
2022-08-14T16:07:27.347Z,22.10
2022-08-14T16:10:28.254Z,22.00
2022-08-14T16:12:48.656Z,22.40
2022-08-14T16:15:18.019Z,22.60
2022-08-14T16:17:46.963Z,22.30
2022-08-14T16:20:41.005Z,22.10
2022-08-14T16:23:10.505Z,22.00
2022-08-14T16:25:47.090Z,22.00
2022-08-14T16:28:27.535Z,22.20
2022-08-14T16:30:57.022Z,22.00
2022-08-14T16:33:27.835Z,22.00
2022-08-14T16:36:30.644Z,22.10
2022-08-14T16:39:00.739Z,22.00
2022-08-14T16:41:30.912Z,22.00
2022-08-14T16:44:02.019Z,21.90
2022-08-14T16:46:32.537Z,21.70
2022-08-14T16:49:04.911Z,22.00
2022-08-14T16:51:36.289Z,21.90
2022-08-14T16:54:21.033Z,21.60
2022-08-14T16:57:12.679Z,21.40
2022-08-14T16:59:52.625Z,21.30
2022-08-14T17:02:36.706Z,21.20
2022-08-14T17:05:16.682Z,21.20
2022-08-14T17:08:32.779Z,21.20
2022-08-14T17:11:04.859Z,21.00
2022-08-14T17:13:57.817Z,21.20
2022-08-14T17:16:31.679Z,21.10
2022-08-14T17:19:14.352Z,21.30
2022-08-14T17:21:46.992Z,20.90
2022-08-14T17:24:56.205Z,20.80
2022-08-14T17:27:06.230Z,20.70
2022-08-14T17:29:44.344Z,20.70
2022-08-14T17:32:29.971Z,20.60
2022-08-14T17:35:16.681Z,20.60
2022-08-14T17:37:56.537Z,20.60
2022-08-14T17:40:26.717Z,20.40
2022-08-14T17:43:02.045Z,20.50
2022-08-14T17:45:46.982Z,20.20
2022-08-14T17:49:15.957Z,20.20
2022-08-14T17:51:23.831Z,20.20
2022-08-14T17:54:03.044Z,20.10
2022-08-14T17:56:32.459Z,20.20
2022-08-14T17:59:02.384Z,20.00
2022-08-14T18:01:35.705Z,19.90
2022-08-14T18:04:27.799Z,19.90
2022-08-14T18:07:08.876Z,19.90
2022-08-14T18:09:56.320Z,20.00
2022-08-14T18:12:31.872Z,19.90
2022-08-14T18:15:16.776Z,19.90
2022-08-14T18:17:52.703Z,19.70
2022-08-14T18:21:23.626Z,19.70
2022-08-14T18:23:13.020Z,19.80
2022-08-14T18:25:43.712Z,19.60
2022-08-14T18:28:15.980Z,19.60
2022-08-14T18:30:58.799Z,19.70
2022-08-14T18:33:33.253Z,19.70
2022-08-14T18:36:47.937Z,19.70
2022-08-14T18:39:13.409Z,19.70
2022-08-14T18:41:42.032Z,19.60
2022-08-14T18:44:11.421Z,19.60
2022-08-14T18:47:00.468Z,19.60
2022-08-14T18:49:33.616Z,19.60
2022-08-14T18:52:18.995Z,19.50
2022-08-14T18:54:59.242Z,19.50
2022-08-14T18:57:40.303Z,19.40
2022-08-14T19:00:24.056Z,19.40
2022-08-14T19:03:02.639Z,19.40
2022-08-14T19:05:47.638Z,19.40
2022-08-14T19:08:27.183Z,19.40
2022-08-14T19:10:59.351Z,19.30
2022-08-14T19:13:48.264Z,19.40
2022-08-14T19:16:26.489Z,19.30
2022-08-14T19:19:00.306Z,19.30
2022-08-14T19:21:30.981Z,19.20
2022-08-14T19:24:30.002Z,19.30
2022-08-14T19:27:16.446Z,19.30
2022-08-14T19:29:51.064Z,19.40
2022-08-14T19:32:40.497Z,19.20
2022-08-14T19:35:49.097Z,19.30
2022-08-14T19:38:45.108Z,19.40
2022-08-14T19:41:21.392Z,19.40
2022-08-14T19:43:57.005Z,19.20
2022-08-14T19:46:39.018Z,19.30
2022-08-14T19:49:23.207Z,19.30
2022-08-14T19:52:16.788Z,19.30
2022-08-14T19:54:51.244Z,19.20
2022-08-14T19:57:23.797Z,19.30
2022-08-14T20:00:04.512Z,19.30
2022-08-14T20:02:37.574Z,19.20
2022-08-14T20:05:07.966Z,19.20
2022-08-14T20:07:56.293Z,19.30
2022-08-14T20:11:07.094Z,19.30
2022-08-14T20:13:32.095Z,19.10
2022-08-14T20:16:11.982Z,19.20
2022-08-14T20:18:51.961Z,19.40
2022-08-14T20:21:23.308Z,19.20
2022-08-14T20:24:30.844Z,19.20
2022-08-14T20:27:20.356Z,19.10
2022-08-14T20:30:28.826Z,19.20
2022-08-14T20:32:51.628Z,19.10
2022-08-14T20:35:35.704Z,19.10
2022-08-14T20:38:30.938Z,19.10
2022-08-14T20:40:54.806Z,19.00
2022-08-14T20:43:42.449Z,19.00
2022-08-14T20:46:16.688Z,18.90
2022-08-14T20:48:58.394Z,18.90
2022-08-14T20:51:37.171Z,18.80
2022-08-14T20:54:07.450Z,18.80
2022-08-14T20:56:37.121Z,18.80
2022-08-14T20:59:17.492Z,18.70
2022-08-14T21:01:51.727Z,18.70
2022-08-14T21:04:26.432Z,18.60
2022-08-14T21:07:24.925Z,18.70
2022-08-14T21:10:05.373Z,18.70
2022-08-14T21:12:33.337Z,18.70
2022-08-14T21:15:03.271Z,18.60
2022-08-14T21:17:37.394Z,18.70
2022-08-14T21:20:26.108Z,18.60
2022-08-14T21:22:56.393Z,18.60
2022-08-14T21:25:25.081Z,18.50
2022-08-14T21:28:05.953Z,18.60
2022-08-14T21:30:51.743Z,18.50
2022-08-14T21:33:22.849Z,18.50
2022-08-14T21:35:55.596Z,18.40
2022-08-14T21:38:31.358Z,18.40
2022-08-14T21:41:43.408Z,18.40
2022-08-14T21:44:17.666Z,18.20
2022-08-14T21:46:50.561Z,18.20
2022-08-14T21:49:23.601Z,18.20
2022-08-14T21:51:57.797Z,18.20
2022-08-14T21:54:49.815Z,18.20
2022-08-14T21:57:55.751Z,18.10
2022-08-14T22:00:30.382Z,18.00
2022-08-14T22:03:05.017Z,18.00
2022-08-14T22:05:34.527Z,18.00
2022-08-14T22:08:04.310Z,17.90
2022-08-14T22:10:37.259Z,18.00
2022-08-14T22:13:05.400Z,17.90
2022-08-14T22:15:34.022Z,17.90
2022-08-14T22:18:36.854Z,18.00
2022-08-14T22:21:08.262Z,18.00
2022-08-14T22:23:45.451Z,17.90
2022-08-14T22:26:21.820Z,18.00
2022-08-14T22:28:50.346Z,17.80
2022-08-14T22:31:24.326Z,17.90
2022-08-14T22:34:03.654Z,17.90
2022-08-14T22:36:48.758Z,17.80
2022-08-14T22:39:17.582Z,17.80
2022-08-14T22:41:55.974Z,17.80
2022-08-14T22:44:25.495Z,17.80
2022-08-14T22:46:57.596Z,17.80
2022-08-14T22:50:31.085Z,17.90
2022-08-14T22:52:32.790Z,17.80
2022-08-14T22:55:05.994Z,17.80
2022-08-14T22:57:41.729Z,17.90
2022-08-14T23:00:14.176Z,17.90
2022-08-14T23:02:43.153Z,17.90
2022-08-14T23:05:15.219Z,17.80
2022-08-14T23:08:59.171Z,17.80
2022-08-14T23:10:34.781Z,17.80
2022-08-14T23:13:04.872Z,17.70
2022-08-14T23:15:33.636Z,17.80
2022-08-14T23:18:03.443Z,17.70
2022-08-14T23:20:32.115Z,17.80
2022-08-14T23:23:11.407Z,17.80
2022-08-14T23:25:58.781Z,17.80
2022-08-14T23:28:34.820Z,17.80
2022-08-14T23:31:26.631Z,17.80
2022-08-14T23:34:06.988Z,17.80
2022-08-14T23:36:37.303Z,17.80
2022-08-14T23:39:24.500Z,17.80
2022-08-14T23:42:04.741Z,17.80
2022-08-14T23:44:37.008Z,17.80
2022-08-14T23:47:12.251Z,17.80
2022-08-14T23:50:03.128Z,17.80
2022-08-14T23:52:51.542Z,17.80
2022-08-14T23:55:25.540Z,17.80
2022-08-14T23:57:57.435Z,17.80
